createdAt,value
2022-11-17T00:00:31.962Z,19.09
2022-11-17T00:02:59.251Z,19.07
2022-11-17T00:05:26.778Z,19.09
2022-11-17T00:07:54.113Z,19.08
2022-11-17T00:10:21.672Z,19.02
2022-11-17T00:13:07.702Z,19.08
2022-11-17T00:15:35.170Z,19.05
2022-11-17T00:18:21.216Z,19.05
2022-11-17T00:21:07.207Z,19.08
2022-11-17T00:23:48.070Z,19.04
2022-11-17T00:27:04.585Z,19.07
2022-11-17T00:29:32.747Z,19.02
2022-11-17T00:32:23.312Z,19.01
2022-11-17T00:34:50.751Z,19.08
2022-11-17T00:37:18.790Z,19.08
2022-11-17T00:39:46.071Z,19.14
2022-11-17T00:42:13.392Z,19.16
2022-11-17T00:44:40.888Z,19.19
2022-11-17T00:47:08.319Z,19.22
2022-11-17T00:49:36.999Z,19.23
2022-11-17T00:52:04.971Z,19.23
2022-11-17T00:54:32.560Z,19.23
2022-11-17T00:57:00.061Z,19.20
2022-11-17T00:59:31.902Z,19.22
2022-11-17T01:02:00.096Z,19.19
2022-11-17T01:04:30.513Z,19.15
2022-11-17T01:06:57.947Z,19.17
2022-11-17T01:09:25.489Z,19.17
2022-11-17T01:11:54.223Z,19.20
2022-11-17T01:14:27.220Z,19.14
2022-11-17T01:16:56.220Z,19.08
2022-11-17T01:19:24.645Z,19.11
2022-11-17T01:21:52.051Z,19.14
2022-11-17T01:24:19.686Z,19.11
2022-11-17T01:26:47.443Z,19.05
2022-11-17T01:29:17.511Z,19.14
2022-11-17T01:31:50.005Z,19.14
2022-11-17T01:34:18.329Z,19.13
2022-11-17T01:37:04.667Z,19.07
2022-11-17T01:39:32.905Z,19.05
2022-11-17T01:42:04.709Z,19.09
2022-11-17T01:44:50.647Z,19.10
2022-11-17T01:47:26.995Z,18.95
2022-11-17T01:50:29.166Z,18.92
2022-11-17T01:53:00.797Z,18.94
2022-11-17T01:55:36.425Z,18.98
2022-11-17T01:58:14.353Z,18.95
2022-11-17T02:00:42.284Z,19.01
2022-11-17T02:03:10.576Z,19.02
2022-11-17T02:05:50.137Z,19.01
2022-11-17T02:08:21.468Z,19.04
2022-11-17T02:10:51.933Z,19.07
2022-11-17T02:13:21.795Z,19.06
2022-11-17T02:15:50.617Z,19.04
2022-11-17T02:18:18.598Z,19.03
2022-11-17T02:21:31.666Z,19.03
2022-11-17T02:24:24.944Z,19.03
2022-11-17T02:27:01.706Z,19.04
2022-11-17T02:29:44.252Z,18.90
2022-11-17T02:32:19.977Z,18.86
2022-11-17T02:34:54.952Z,18.97
2022-11-17T02:37:32.427Z,19.00
2022-11-17T02:40:11.339Z,19.00
2022-11-17T02:43:02.221Z,19.02
2022-11-17T02:46:03.876Z,19.05
2022-11-17T02:48:36.598Z,19.07
2022-11-17T02:51:05.747Z,19.07
2022-11-17T02:53:35.283Z,19.11
2022-11-17T02:56:03.166Z,19.13
2022-11-17T02:58:30.626Z,19.10
2022-11-17T03:01:01.071Z,19.12
2022-11-17T03:03:43.782Z,19.01
2022-11-17T03:06:25.293Z,19.06
2022-11-17T03:08:55.985Z,19.07
2022-11-17T03:11:40.424Z,19.10
2022-11-17T03:14:37.299Z,19.09
2022-11-17T03:17:35.546Z,18.99
2022-11-17T03:20:26.823Z,18.96
2022-11-17T03:23:18.010Z,18.98
2022-11-17T03:25:52.070Z,19.01
2022-11-17T03:28:22.307Z,19.02
2022-11-17T03:30:52.105Z,19.04
2022-11-17T03:33:23.166Z,19.03
2022-11-17T03:36:06.818Z,19.06
2022-11-17T03:38:38.937Z,19.04
2022-11-17T03:41:07.610Z,19.00
2022-11-17T03:43:36.861Z,18.96
2022-11-17T03:46:09.986Z,19.03
2022-11-17T03:48:46.107Z,19.03
2022-11-17T03:51:19.541Z,19.03
2022-11-17T03:53:47.785Z,19.05
2022-11-17T03:56:42.983Z,19.04
2022-11-17T03:59:19.454Z,19.03
2022-11-17T04:01:47.047Z,19.05
2022-11-17T04:04:19.296Z,19.01
2022-11-17T04:06:47.972Z,19.08
2022-11-17T04:09:18.747Z,19.02
2022-11-17T04:12:08.995Z,18.99
2022-11-17T04:14:54.707Z,19.07
2022-11-17T04:17:22.165Z,19.09
2022-11-17T04:19:49.435Z,19.08
2022-11-17T04:22:16.959Z,19.12
2022-11-17T04:24:44.310Z,19.08
2022-11-17T04:27:30.036Z,19.08
2022-11-17T04:29:58.512Z,19.11
2022-11-17T04:32:25.739Z,19.06
2022-11-17T04:34:53.559Z,19.05
2022-11-17T04:37:21.151Z,19.08
2022-11-17T04:39:48.512Z,19.11
2022-11-17T04:42:15.915Z,19.11
2022-11-17T04:44:43.241Z,19.10
2022-11-17T04:47:10.814Z,19.10
2022-11-17T04:49:38.609Z,19.11
2022-11-17T04:52:06.436Z,19.11
2022-11-17T04:54:34.109Z,19.12
2022-11-17T04:57:07.136Z,19.13
2022-11-17T04:59:34.753Z,19.14
2022-11-17T05:02:05.891Z,19.15
2022-11-17T05:04:52.429Z,19.17
2022-11-17T05:07:19.920Z,19.13
2022-11-17T05:09:47.493Z,19.15
2022-11-17T05:12:33.249Z,19.14
2022-11-17T05:15:00.751Z,19.11
2022-11-17T05:17:28.390Z,19.13
2022-11-17T05:19:56.720Z,19.17
2022-11-17T05:22:42.810Z,19.18
2022-11-17T05:25:10.940Z,19.12
2022-11-17T05:27:38.469Z,19.11
2022-11-17T05:30:08.540Z,19.11
2022-11-17T05:32:36.073Z,19.10
2022-11-17T05:35:04.232Z,19.07
2022-11-17T05:37:31.606Z,19.08
2022-11-17T05:39:59.037Z,19.03
2022-11-17T05:42:27.115Z,19.06
2022-11-17T05:44:54.833Z,19.08
2022-11-17T05:47:22.278Z,19.09
2022-11-17T05:49:49.864Z,19.05
2022-11-17T05:52:17.296Z,19.05
2022-11-17T05:54:44.846Z,19.05
2022-11-17T05:57:17.389Z,19.02
2022-11-17T05:59:53.753Z,19.01
2022-11-17T06:02:32.814Z,19.03
2022-11-17T06:05:00.798Z,19.03
2022-11-17T06:07:28.159Z,19.00
2022-11-17T06:09:55.556Z,19.03
2022-11-17T06:12:23.041Z,19.05
2022-11-17T06:14:51.697Z,19.05
2022-11-17T06:17:47.461Z,19.00
2022-11-17T06:20:20.713Z,19.03
2022-11-17T06:22:49.935Z,18.92
2022-11-17T06:25:20.650Z,18.99
2022-11-17T06:27:51.200Z,19.03
2022-11-17T06:30:19.761Z,19.03
2022-11-17T06:32:58.840Z,19.04
2022-11-17T06:35:36.932Z,19.05
2022-11-17T06:38:07.667Z,19.06
2022-11-17T06:40:35.828Z,19.02
2022-11-17T06:43:12.947Z,19.07
2022-11-17T06:45:41.883Z,18.98
2022-11-17T06:48:12.653Z,18.97
2022-11-17T06:50:40.990Z,18.94
2022-11-17T06:53:13.249Z,18.80
2022-11-17T06:55:40.856Z,18.81
2022-11-17T06:58:12.970Z,18.84
2022-11-17T07:00:40.749Z,18.85
2022-11-17T07:03:11.343Z,18.87
2022-11-17T07:05:40.426Z,18.88
2022-11-17T07:08:10.022Z,18.85
2022-11-17T07:10:41.630Z,18.83
2022-11-17T07:13:13.278Z,18.89
2022-11-17T07:15:41.333Z,18.93
2022-11-17T07:18:09.837Z,18.98
2022-11-17T07:20:38.311Z,19.01
2022-11-17T07:23:07.007Z,18.98
2022-11-17T07:25:35.619Z,19.02
2022-11-17T07:28:03.823Z,19.05
2022-11-17T07:30:31.813Z,19.02
2022-11-17T07:33:01.176Z,19.07
2022-11-17T07:35:29.363Z,19.06
2022-11-17T07:37:58.920Z,19.10
2022-11-17T07:40:27.881Z,19.13
2022-11-17T07:42:56.217Z,19.16
2022-11-17T07:45:31.742Z,19.19
2022-11-17T07:48:01.930Z,19.26
2022-11-17T07:50:31.059Z,19.35
2022-11-17T07:52:59.362Z,19.34
2022-11-17T07:55:37.086Z,19.41
2022-11-17T07:58:04.953Z,19.50
2022-11-17T08:00:34.124Z,19.46
2022-11-17T08:03:10.808Z,19.52
2022-11-17T08:05:43.422Z,19.53
2022-11-17T08:08:14.496Z,19.60
2022-11-17T08:10:43.523Z,19.60
2022-11-17T08:13:14.629Z,19.69
2022-11-17T08:15:43.879Z,19.72
2022-11-17T08:18:11.731Z,19.75
2022-11-17T08:20:39.823Z,19.84
2022-11-17T08:23:08.246Z,19.87
2022-11-17T08:25:37.153Z,19.97
2022-11-17T08:28:05.224Z,20.01
2022-11-17T08:30:35.697Z,20.05
2022-11-17T08:33:03.784Z,20.11
2022-11-17T08:35:37.434Z,20.15
2022-11-17T08:38:05.503Z,20.19
2022-11-17T08:40:34.084Z,20.23
2022-11-17T08:43:02.810Z,20.26
2022-11-17T08:45:31.087Z,20.18
2022-11-17T08:47:58.956Z,20.22
2022-11-17T08:50:27.053Z,20.26
2022-11-17T08:52:54.680Z,20.29
2022-11-17T08:55:22.530Z,20.30
2022-11-17T08:57:50.947Z,20.33
2022-11-17T09:00:21.143Z,20.33
2022-11-17T09:02:48.757Z,20.32
2022-11-17T09:05:16.395Z,20.32
2022-11-17T09:07:44.623Z,20.33
2022-11-17T09:10:19.680Z,20.33
2022-11-17T09:12:48.117Z,20.33
2022-11-17T09:15:16.158Z,20.36
2022-11-17T09:17:48.430Z,20.30
2022-11-17T09:20:17.322Z,20.33
2022-11-17T09:22:46.208Z,20.36
2022-11-17T09:25:14.482Z,20.36
2022-11-17T09:27:43.684Z,20.38
2022-11-17T09:30:12.026Z,20.34
2022-11-17T09:32:39.782Z,20.35
2022-11-17T09:35:09.785Z,20.36
2022-11-17T09:37:37.482Z,20.42
2022-11-17T09:40:05.352Z,20.45
2022-11-17T09:42:39.593Z,20.30
2022-11-17T09:45:23.459Z,20.41
2022-11-17T09:48:38.826Z,20.41
2022-11-17T09:50:59.101Z,20.46
2022-11-17T09:53:50.929Z,20.55
2022-11-17T09:56:19.149Z,20.62
2022-11-17T09:59:02.053Z,20.75
2022-11-17T10:01:31.557Z,20.86
2022-11-17T10:04:02.225Z,20.96
2022-11-17T10:06:32.406Z,21.07
2022-11-17T10:09:12.440Z,21.06
2022-11-17T10:11:43.490Z,21.21
2022-11-17T10:14:19.444Z,21.24
2022-11-17T10:16:57.814Z,21.21
2022-11-17T10:19:28.285Z,21.24
2022-11-17T10:22:02.328Z,21.27
2022-11-17T10:24:37.832Z,21.34
2022-11-17T10:27:18.521Z,21.23
2022-11-17T10:30:34.569Z,21.07
2022-11-17T10:33:03.586Z,20.99
2022-11-17T10:35:38.082Z,21.04
2022-11-17T10:38:11.830Z,20.95
2022-11-17T10:40:39.652Z,21.00
2022-11-17T10:43:13.723Z,20.94
2022-11-17T10:45:45.728Z,20.86
2022-11-17T10:48:23.268Z,20.92
2022-11-17T10:51:02.838Z,20.97
2022-11-17T10:53:45.661Z,20.99
2022-11-17T10:56:18.534Z,20.93
2022-11-17T10:58:57.378Z,20.94
2022-11-17T11:01:37.211Z,21.00
2022-11-17T11:04:30.326Z,20.88
2022-11-17T11:07:12.067Z,20.95
2022-11-17T11:10:13.269Z,20.85
2022-11-17T11:12:53.992Z,21.01
2022-11-17T11:15:25.115Z,21.06
2022-11-17T11:18:01.772Z,21.00
2022-11-17T11:21:02.990Z,21.12
2022-11-17T11:23:49.035Z,21.14
2022-11-17T11:26:21.909Z,21.17
2022-11-17T11:29:24.798Z,21.15
2022-11-17T11:32:01.158Z,21.16
2022-11-17T11:34:35.270Z,21.30
2022-11-17T11:37:14.284Z,21.30
2022-11-17T11:40:22.316Z,21.37
2022-11-17T11:43:05.323Z,21.40
2022-11-17T11:45:56.629Z,21.45
2022-11-17T11:48:35.355Z,21.50
2022-11-17T11:51:18.041Z,21.60
2022-11-17T11:53:58.097Z,21.64
2022-11-17T11:56:30.889Z,21.76
2022-11-17T11:59:24.526Z,21.86
2022-11-17T12:02:13.720Z,21.98
2022-11-17T12:05:20.360Z,22.05
2022-11-17T12:07:55.333Z,22.11
2022-11-17T12:10:33.747Z,22.22
2022-11-17T12:13:02.886Z,22.28
2022-11-17T12:15:35.559Z,22.43
2022-11-17T12:18:29.719Z,22.55
2022-11-17T12:21:14.140Z,22.64
2022-11-17T12:24:10.541Z,22.65
2022-11-17T12:26:41.097Z,22.67
2022-11-17T12:29:26.659Z,22.69
2022-11-17T12:34:41.638Z,22.75
2022-11-17T12:37:15.237Z,22.80
2022-11-17T12:40:04.794Z,22.80
2022-11-17T12:42:35.201Z,22.82
2022-11-17T12:45:09.235Z,22.85
2022-11-17T12:48:05.150Z,22.84
2022-11-17T12:50:53.746Z,22.82
2022-11-17T12:53:33.991Z,22.78
2022-11-17T12:56:10.247Z,22.78
2022-11-17T12:59:00.760Z,22.83
2022-11-17T13:01:28.463Z,22.79
2022-11-17T13:03:58.830Z,22.84
2022-11-17T13:06:41.790Z,22.86
2022-11-17T13:09:15.897Z,22.88
2022-11-17T13:12:01.853Z,22.90
2022-11-17T13:14:31.190Z,22.95
2022-11-17T13:17:09.625Z,22.95
2022-11-17T13:19:39.268Z,22.97
2022-11-17T13:22:17.686Z,23.00
2022-11-17T13:24:48.424Z,23.00
2022-11-17T13:27:28.377Z,23.04
2022-11-17T13:30:22.271Z,23.08
2022-11-17T13:33:02.861Z,23.08
2022-11-17T13:35:34.694Z,23.09
2022-11-17T13:38:04.493Z,23.06
2022-11-17T13:40:36.777Z,23.08
2022-11-17T13:43:10.158Z,23.12
2022-11-17T13:45:38.709Z,23.20
2022-11-17T13:48:06.747Z,23.23
2022-11-17T13:50:37.707Z,23.31
2022-11-17T13:53:13.472Z,23.36
2022-11-17T13:55:47.070Z,23.37
2022-11-17T13:58:42.554Z,23.35
2022-11-17T14:01:14.421Z,23.29
2022-11-17T14:03:48.186Z,23.27
2022-11-17T14:06:15.962Z,23.21
2022-11-17T14:09:02.353Z,23.17
2022-11-17T14:11:35.599Z,23.15
2022-11-17T14:14:16.005Z,23.13
2022-11-17T14:16:45.895Z,23.11
2022-11-17T14:19:17.010Z,23.09
2022-11-17T14:22:14.354Z,23.10
2022-11-17T14:24:48.491Z,23.09
2022-11-17T14:27:32.416Z,23.10
2022-11-17T14:30:00.571Z,23.06
2022-11-17T14:32:28.998Z,23.05
2022-11-17T14:34:57.237Z,23.06
2022-11-17T14:37:28.502Z,23.06
2022-11-17T14:39:56.865Z,23.01
2022-11-17T14:42:25.143Z,23.01
2022-11-17T14:44:53.886Z,23.00
2022-11-17T14:47:25.411Z,23.03
2022-11-17T14:49:54.075Z,23.08
2022-11-17T14:52:22.075Z,23.10
2022-11-17T14:55:01.098Z,23.08
2022-11-17T14:57:29.194Z,23.06
2022-11-17T14:59:57.153Z,23.04
2022-11-17T15:02:24.998Z,23.05
2022-11-17T15:04:54.048Z,23.02
2022-11-17T15:07:23.262Z,23.02
2022-11-17T15:09:58.404Z,22.99
2022-11-17T15:12:28.888Z,22.94
2022-11-17T15:15:06.891Z,22.91
2022-11-17T15:17:36.585Z,22.87
2022-11-17T15:20:06.230Z,22.86
2022-11-17T15:22:34.793Z,22.84
2022-11-17T15:25:03.898Z,22.82
2022-11-17T15:27:32.013Z,22.77
2022-11-17T15:30:00.039Z,22.78
2022-11-17T15:32:31.322Z,22.81
2022-11-17T15:35:00.219Z,22.83
2022-11-17T15:37:31.307Z,22.86
2022-11-17T15:40:06.440Z,22.87
2022-11-17T15:42:34.785Z,22.88
2022-11-17T15:45:03.209Z,22.85
2022-11-17T15:47:39.762Z,22.83
2022-11-17T15:50:09.025Z,22.83
2022-11-17T15:53:02.827Z,22.80
2022-11-17T15:55:27.710Z,22.79
2022-11-17T15:57:55.842Z,22.77
2022-11-17T16:00:23.560Z,22.76
2022-11-17T16:02:54.436Z,22.75
2022-11-17T16:05:26.061Z,22.73
2022-11-17T16:07:54.155Z,22.71
2022-11-17T16:10:21.855Z,22.69
2022-11-17T16:12:49.962Z,22.72
2022-11-17T16:15:17.739Z,22.75
2022-11-17T16:17:47.159Z,22.74
2022-11-17T16:20:15.649Z,22.72
2022-11-17T16:22:43.097Z,22.69
2022-11-17T16:25:10.961Z,22.70
2022-11-17T16:27:39.011Z,22.65
2022-11-17T16:30:07.428Z,22.56
2022-11-17T16:32:35.092Z,22.54
2022-11-17T16:35:02.392Z,22.49
2022-11-17T16:37:29.938Z,22.41
2022-11-17T16:39:57.460Z,22.33
2022-11-17T16:42:25.920Z,22.30
2022-11-17T16:44:53.333Z,22.24
2022-11-17T16:47:29.455Z,22.19
2022-11-17T16:49:56.805Z,22.15
2022-11-17T16:52:25.066Z,22.11
2022-11-17T16:54:52.446Z,22.08
2022-11-17T16:57:20.198Z,22.07
2022-11-17T16:59:48.490Z,22.02
2022-11-17T17:02:16.327Z,21.96
2022-11-17T17:04:44.107Z,21.97
2022-11-17T17:07:12.276Z,21.94
2022-11-17T17:09:40.099Z,21.92
2022-11-17T17:12:09.333Z,21.88
2022-11-17T17:14:36.988Z,21.84
2022-11-17T17:17:06.267Z,21.85
2022-11-17T17:19:34.741Z,21.84
2022-11-17T17:22:03.432Z,21.81
2022-11-17T17:24:31.268Z,21.81
2022-11-17T17:27:01.726Z,21.79
2022-11-17T17:29:29.497Z,21.76
2022-11-17T17:31:56.964Z,21.75
2022-11-17T17:34:24.502Z,21.72
2022-11-17T17:36:52.410Z,21.69
2022-11-17T17:39:20.107Z,21.68
2022-11-17T17:41:47.769Z,21.66
2022-11-17T17:44:18.387Z,21.61
2022-11-17T17:46:47.113Z,21.55
2022-11-17T17:49:16.683Z,21.57
2022-11-17T17:51:45.856Z,21.58
2022-11-17T17:54:25.787Z,21.58
2022-11-17T17:56:58.173Z,21.53
2022-11-17T17:59:26.208Z,21.57
2022-11-17T18:01:53.871Z,21.59
2022-11-17T18:04:25.276Z,21.58
2022-11-17T18:06:53.031Z,21.57
2022-11-17T18:09:21.425Z,21.56
2022-11-17T18:11:51.302Z,21.55
2022-11-17T18:14:27.407Z,21.52
2022-11-17T18:16:56.498Z,21.51
2022-11-17T18:19:28.230Z,21.46
2022-11-17T18:21:59.721Z,21.44
2022-11-17T18:24:27.232Z,21.47
2022-11-17T18:26:57.871Z,21.47
2022-11-17T18:29:27.886Z,21.47
2022-11-17T18:31:55.565Z,21.47
2022-11-17T18:34:25.759Z,21.50
2022-11-17T18:36:58.744Z,21.50
2022-11-17T18:39:36.644Z,21.52
2022-11-17T18:42:05.604Z,21.53
2022-11-17T18:44:34.177Z,21.55
2022-11-17T18:47:03.697Z,21.58
2022-11-17T18:49:32.274Z,21.58
2022-11-17T18:52:01.368Z,21.59
2022-11-17T18:54:29.727Z,21.62
2022-11-17T18:57:02.088Z,21.64
2022-11-17T18:59:29.746Z,21.64
2022-11-17T19:01:58.102Z,21.60
2022-11-17T19:04:26.892Z,21.62
2022-11-17T19:06:55.665Z,21.59
2022-11-17T19:09:23.272Z,21.54
2022-11-17T19:11:50.749Z,21.53
2022-11-17T19:14:19.513Z,21.53
2022-11-17T19:16:47.684Z,21.52
2022-11-17T19:19:15.850Z,21.52
2022-11-17T19:21:47.450Z,21.49
2022-11-17T19:24:15.937Z,21.43
2022-11-17T19:26:43.826Z,21.39
2022-11-17T19:29:17.902Z,21.36
2022-11-17T19:31:47.913Z,21.35
2022-11-17T19:34:16.746Z,21.33
2022-11-17T19:36:45.807Z,21.30
2022-11-17T19:39:17.368Z,21.32
2022-11-17T19:42:01.069Z,21.32
2022-11-17T19:44:45.717Z,21.33
2022-11-17T19:47:19.478Z,21.37
2022-11-17T19:49:58.906Z,21.42
2022-11-17T19:52:35.827Z,21.41
2022-11-17T19:55:05.363Z,21.44
2022-11-17T19:57:34.741Z,21.42
2022-11-17T20:00:04.159Z,21.43
2022-11-17T20:02:52.049Z,21.45
2022-11-17T20:05:19.888Z,21.50
2022-11-17T20:07:47.841Z,21.50
2022-11-17T20:10:15.909Z,21.52
2022-11-17T20:12:44.002Z,21.55
2022-11-17T20:15:33.033Z,21.60
2022-11-17T20:18:00.324Z,21.58
2022-11-17T20:20:28.453Z,21.58
2022-11-17T20:22:57.197Z,21.63
2022-11-17T20:25:26.136Z,21.63
2022-11-17T20:27:54.275Z,21.63
2022-11-17T20:30:29.302Z,21.63
2022-11-17T20:32:58.406Z,21.65
2022-11-17T20:35:34.590Z,21.65
2022-11-17T20:38:04.549Z,21.63
2022-11-17T20:40:33.362Z,21.65
2022-11-17T20:43:00.820Z,21.61
2022-11-17T20:45:28.897Z,21.60
2022-11-17T20:47:56.228Z,21.63
2022-11-17T20:50:24.249Z,21.58
2022-11-17T20:52:53.030Z,21.56
2022-11-17T20:55:20.879Z,21.53
2022-11-17T20:57:52.274Z,21.53
2022-11-17T21:00:23.060Z,21.49
2022-11-17T21:02:51.646Z,21.44
2022-11-17T21:05:19.449Z,21.42
2022-11-17T21:07:55.878Z,21.40
2022-11-17T21:10:23.569Z,21.38
2022-11-17T21:12:51.552Z,21.35
2022-11-17T21:15:19.681Z,21.31
2022-11-17T21:18:07.524Z,21.29
2022-11-17T21:20:36.419Z,21.22
2022-11-17T21:23:08.806Z,21.28
2022-11-17T21:25:38.750Z,21.23
2022-11-17T21:28:06.362Z,21.19
2022-11-17T21:30:35.240Z,21.20
2022-11-17T21:33:03.446Z,21.18
2022-11-17T21:35:36.366Z,21.16
2022-11-17T21:38:06.119Z,21.12
2022-11-17T21:40:35.286Z,21.09
2022-11-17T21:43:03.841Z,21.08
2022-11-17T21:45:34.238Z,21.05
2022-11-17T21:48:03.182Z,21.03
2022-11-17T21:50:35.761Z,21.00
2022-11-17T21:53:14.317Z,20.99
2022-11-17T21:55:53.494Z,20.96
2022-11-17T21:58:26.399Z,20.96
2022-11-17T22:01:02.460Z,20.86
2022-11-17T22:03:32.013Z,20.87
2022-11-17T22:06:14.315Z,20.85
2022-11-17T22:08:45.682Z,20.87
2022-11-17T22:11:40.688Z,20.81
2022-11-17T22:14:21.638Z,20.80
2022-11-17T22:16:53.471Z,20.78
2022-11-17T22:19:25.396Z,20.73
2022-11-17T22:21:56.404Z,20.73
2022-11-17T22:24:28.298Z,20.75
2022-11-17T22:26:58.484Z,20.79
2022-11-17T22:29:27.471Z,20.74
2022-11-17T22:31:55.066Z,20.57
2022-11-17T22:34:24.907Z,20.55
2022-11-17T22:36:52.618Z,20.50
2022-11-17T22:39:20.607Z,20.58
2022-11-17T22:41:48.329Z,20.52
2022-11-17T22:44:16.976Z,20.53
2022-11-17T22:46:45.879Z,20.45
2022-11-17T22:49:14.061Z,20.46
2022-11-17T22:52:01.482Z,20.38
2022-11-17T22:54:29.207Z,20.38
2022-11-17T22:56:57.916Z,20.34
2022-11-17T22:59:30.495Z,20.17
2022-11-17T23:02:03.205Z,20.11
2022-11-17T23:04:30.845Z,20.02
2022-11-17T23:06:58.950Z,19.98
2022-11-17T23:09:26.963Z,20.00
2022-11-17T23:11:54.706Z,19.84
2022-11-17T23:14:22.310Z,19.94
2022-11-17T23:16:50.180Z,19.87
2022-11-17T23:19:18.161Z,19.88
2022-11-17T23:21:46.089Z,19.90
2022-11-17T23:24:15.103Z,19.92
2022-11-17T23:26:43.257Z,19.92
2022-11-17T23:29:10.846Z,19.87
2022-11-17T23:31:39.195Z,19.95
2022-11-17T23:34:12.401Z,19.97
2022-11-17T23:36:40.075Z,19.98
2022-11-17T23:39:07.742Z,19.93
2022-11-17T23:41:37.672Z,20.00
2022-11-17T23:44:05.757Z,19.90
2022-11-17T23:46:33.301Z,19.80
2022-11-17T23:49:00.719Z,19.87
2022-11-17T23:51:30.727Z,19.79
2022-11-17T23:54:01.593Z,19.79
2022-11-17T23:56:36.618Z,19.81
2022-11-17T23:59:04.581Z,19.74
